Time;durP1;ratioP1;P1;durP2;ratioP2;P2;SDS_P1;SDS_P2;PMS_P1;PMS_P2;Temp;Humidity;BMP_temperature;BMP_pressure;BME280_temperature;BME280_humidity;BME280_pressure;Samples;Min_cycle;Max_cycle;Signal;HPM_P1;HPM_P2
2024/04/02 00:01:56;;;;;;;;;;;;;;;7.84;100.00;99982.72;5062446;28;19924;-69
2024/04/02 00:04:21;;;;;;;;;;;;;;;7.84;100.00;99980.06;5061956;28;20024;-67
2024/04/02 00:06:47;;;;;;;;;;;;;;;7.67;100.00;99961.47;5062433;28;19920;-70
2024/04/02 00:09:12;;;;;;;;;;;;;;;7.81;100.00;99985.69;5059088;28;20015;-67
2024/04/02 00:11:37;;;;;;;;;;;;;;;7.80;100.00;99986.66;5071209;28;19920;-67
2024/04/02 00:14:03;;;;;;;;;;;;;;;7.75;100.00;99985.34;5059640;28;19931;-68
2024/04/02 00:16:28;;;;;;;;;;;;;;;7.72;100.00;99984.84;5066180;28;19971;-67
2024/04/02 00:18:53;;;;;;;;;;;;;;;7.72;100.00;99979.53;5060137;28;19932;-68
2024/04/02 00:21:19;;;;;;;;;;;;;;;7.75;100.00;99980.03;5065668;28;19932;-69
2024/04/02 00:23:44;;;;;;;;;;;;;;;7.77;100.00;99979.88;5054836;28;20307;-67
2024/04/02 00:26:11;;;;;;;;;;;;;;;7.76;100.00;99981.69;5053395;28;19970;-69
2024/04/02 00:28:37;;;;;;;;;;;;;;;7.80;100.00;99987.50;5066724;28;20070;-67
2024/04/02 00:31:02;;;;;;;;;;;;;;;7.81;100.00;99994.47;5061062;28;19975;-67
2024/04/02 00:33:28;;;;;;;;;;;;;;;7.83;100.00;100003.09;5066538;28;19987;-67
2024/04/02 00:36:04;;;;;;;;;;;;;;;7.87;100.00;100008.91;5065390;28;19927;-68
2024/04/02 00:38:29;;;;;;;;;;;;;;;7.88;100.00;100005.25;5058286;28;20392;-65
2024/04/02 00:40:55;;;;;;;;;;;;;;;7.88;100.00;100010.56;5065393;28;19928;-67
2024/04/02 00:43:20;;;;;;;;;;;;;;;7.83;100.00;100018.16;5064207;28;20333;-65
2024/04/02 00:45:46;;;;;;;;;;;;;;;7.76;100.00;100010.84;5060519;28;19924;-66
2024/04/02 00:48:12;;;;;;;;;;;;;;;7.63;100.00;100001.72;5060425;28;20277;-65
2024/04/02 00:50:37;;;;;;;;;;;;;;;7.54;100.00;100008.81;5060320;28;19925;-68
2024/04/02 00:53:03;;;;;;;;;;;;;;;7.56;100.00;100022.75;5056823;28;19924;-67
2024/04/02 00:55:28;;;;;;;;;;;;;;;7.64;100.00;100020.09;5062235;28;20424;-67
2024/04/02 00:57:54;;;;;;;;;;;;;;;7.71;100.00;100034.34;5062664;28;19929;-68
2024/04/02 01:00:19;;;;;;;;;;;;;;;7.55;100.00;100031.69;5058511;28;19931;-66
2024/04/02 01:02:45;;;;;;;;;;;;;;;7.48;100.00;100035.94;5062060;28;20308;-67
2024/04/02 01:05:10;;;;;;;;;;;;;;;7.42;100.00;100033.94;5068072;28;19924;-67
2024/04/02 01:07:39;;;;;;;;;;;;;;;7.31;100.00;100040.38;5059085;28;20054;-67
2024/04/02 01:10:04;;;;;;;;;;;;;;;7.17;100.00;100053.34;5060551;28;19921;-66
2024/04/02 01:12:30;;;;;;;;;;;;;;;7.10;100.00;100061.94;5061098;28;20342;-68
2024/04/02 01:14:55;;;;;;;;;;;;;;;7.08;100.00;100061.25;5068485;28;19956;-68
2024/04/02 01:17:20;;;;;;;;;;;;;;;7.18;100.00;100070.91;5067900;28;20397;-68
2024/04/02 01:19:46;;;;;;;;;;;;;;;7.24;100.00;100072.94;5063893;28;19921;-67
2024/04/02 01:22:11;;;;;;;;;;;;;;;7.22;100.00;100073.06;5061801;28;20037;-68
2024/04/02 01:24:36;;;;;;;;;;;;;;;7.23;100.00;100081.84;5053129;28;20019;-67
2024/04/02 01:27:02;;;;;;;;;;;;;;;7.21;100.00;100081.19;5062213;28;19924;-66
2024/04/02 01:29:28;;;;;;;;;;;;;;;7.22;100.00;100077.53;5062392;28;19932;-66
2024/04/02 01:31:53;;;;;;;;;;;;;;;7.20;100.00;100079.53;5057723;28;19925;-68
2024/04/02 01:34:18;;;;;;;;;;;;;;;7.13;100.00;100080.16;5055180;28;19925;-67
2024/04/02 01:36:44;;;;;;;;;;;;;;;7.04;100.00;100080.28;5066069;28;19932;-68
2024/04/02 01:39:09;;;;;;;;;;;;;;;6.95;100.00;100081.22;5060548;28;20424;-68
2024/04/02 01:41:35;;;;;;;;;;;;;;;6.91;100.00;100091.25;5060889;28;20470;-68
2024/04/02 01:44:03;;;;;;;;;;;;;;;6.90;100.00;100094.91;5059061;28;20403;-68
2024/04/02 01:46:29;;;;;;;;;;;;;;;6.95;100.00;100097.94;5067983;28;19935;-70
2024/04/02 01:48:55;;;;;;;;;;;;;;;6.88;100.00;100090.75;5074333;28;19924;-67
2024/04/02 01:51:21;;;;;;;;;;;;;;;6.83;100.00;100096.50;5072462;28;19947;-68
2024/04/02 01:53:46;;;;;;;;;;;;;;;6.76;100.00;100104.25;5066376;28;19924;-66
2024/04/02 01:56:11;;;;;;;;;;;;;;;6.66;100.00;100086.81;5079643;28;19931;-70
2024/04/02 01:58:36;;;;;;;;;;;;;;;6.57;100.00;100106.22;5072731;28;19925;-67
2024/04/02 02:01:02;;;;;;;;;;;;;;;6.49;100.00;100120.22;5058723;28;19935;-68
2024/04/02 02:03:27;;;;;;;;;;;;;;;6.19;100.00;100069.38;5065974;28;19920;-67
2024/04/02 02:05:52;;;;;;;;;;;;;;;6.39;100.00;100117.66;5065678;28;20403;-67
2024/04/02 02:08:18;;;;;;;;;;;;;;;6.42;100.00;100120.00;5066035;28;19924;-69
2024/04/02 02:10:43;;;;;;;;;;;;;;;6.46;100.00;100118.72;5065287;28;19985;-69
2024/04/02 02:13:09;;;;;;;;;;;;;;;6.51;100.00;100127.00;5063753;28;19951;-70
2024/04/02 02:15:35;;;;;;;;;;;;;;;6.60;100.00;100132.38;5069109;28;20303;-66
2024/04/02 02:18:00;;;;;;;;;;;;;;;6.65;100.00;100135.38;5056910;28;19990;-68
2024/04/02 02:20:25;;;;;;;;;;;;;;;6.67;100.00;100141.38;5064686;28;19932;-67
2024/04/02 02:22:51;;;;;;;;;;;;;;;6.68;100.00;100143.03;5065304;28;19927;-68
2024/04/02 02:25:17;;;;;;;;;;;;;;;6.64;100.00;100145.13;5065237;28;19933;-69
2024/04/02 02:27:44;;;;;;;;;;;;;;;6.66;100.00;100151.13;5062766;28;20314;-69
2024/04/02 02:30:09;;;;;;;;;;;;;;;6.61;100.00;100142.78;5071904;28;20124;-67
2024/04/02 02:32:35;;;;;;;;;;;;;;;6.61;100.00;100147.25;5069962;28;19932;-67
2024/04/02 02:35:01;;;;;;;;;;;;;;;6.40;100.00;100150.22;5063870;28;19967;-69
2024/04/02 02:37:28;;;;;;;;;;;;;;;6.34;100.00;100151.63;5079147;28;20468;-67
2024/04/02 02:39:53;;;;;;;;;;;;;;;6.25;100.00;100157.84;5065090;28;20023;-66
2024/04/02 02:42:19;;;;;;;;;;;;;;;6.23;100.00;100157.16;5063748;28;19991;-66
2024/04/02 02:44:44;;;;;;;;;;;;;;;6.18;100.00;100154.13;5063215;28;19924;-67
2024/04/02 02:47:09;;;;;;;;;;;;;;;6.22;100.00;100151.03;5065067;28;20362;-67
2024/04/02 02:49:35;;;;;;;;;;;;;;;6.26;100.00;100151.56;5065152;28;19921;-67
2024/04/02 02:52:00;;;;;;;;;;;;;;;6.16;100.00;100154.28;5069035;28;19931;-68
2024/04/02 02:54:25;;;;;;;;;;;;;;;6.06;100.00;100158.78;5061592;28;19970;-66
2024/04/02 02:56:51;;;;;;;;;;;;;;;6.01;100.00;100158.38;5063801;28;19925;-67
2024/04/02 02:59:16;;;;;;;;;;;;;;;6.05;100.00;100156.28;5064931;28;20327;-69
2024/04/02 03:01:41;;;;;;;;;;;;;;;6.03;100.00;100158.25;5063157;28;19924;-68
2024/04/02 03:04:07;;;;;;;;;;;;;;;5.93;100.00;100160.13;5063827;28;20053;-67
2024/04/02 03:06:32;;;;;;;;;;;;;;;5.97;100.00;100156.19;5063578;28;19943;-68
2024/04/02 03:08:58;;;;;;;;;;;;;;;5.99;100.00;100164.81;5065612;28;19928;-68
2024/04/02 03:11:23;;;;;;;;;;;;;;;5.98;100.00;100150.75;5067812;28;20311;-70
2024/04/02 03:13:48;;;;;;;;;;;;;;;5.88;100.00;100150.78;5064887;28;19978;-65
2024/04/02 03:16:14;;;;;;;;;;;;;;;5.81;100.00;100165.56;5063781;28;19925;-67
2024/04/02 03:18:39;;;;;;;;;;;;;;;5.86;100.00;100163.31;5063116;28;19929;-68
2024/04/02 03:21:05;;;;;;;;;;;;;;;5.92;100.00;100163.75;5061407;28;20027;-69
2024/04/02 03:23:30;;;;;;;;;;;;;;;5.89;100.00;100165.69;5065909;28;20015;-68
2024/04/02 03:25:58;;;;;;;;;;;;;;;5.92;100.00;100158.47;5058285;28;20044;-69
2024/04/02 03:28:25;;;;;;;;;;;;;;;5.99;100.00;100170.94;5063820;28;19928;-67
2024/04/02 03:30:55;;;;;;;;;;;;;;;6.03;100.00;100163.53;5058644;28;19956;-71
2024/04/02 03:33:21;;;;;;;;;;;;;;;6.07;100.00;100164.91;5071098;28;19932;-70
2024/04/02 03:35:46;;;;;;;;;;;;;;;6.09;100.00;100162.97;5063818;28;19920;-68
2024/04/02 03:38:11;;;;;;;;;;;;;;;6.11;100.00;100171.56;5062801;28;20400;-69
2024/04/02 03:40:39;;;;;;;;;;;;;;;5.95;100.00;100174.84;5064050;28;20451;-70
2024/04/02 03:43:04;;;;;;;;;;;;;;;5.98;100.00;100181.66;5065125;28;20478;-69
2024/04/02 03:45:30;;;;;;;;;;;;;;;6.03;100.00;100166.16;5062941;28;19924;-69
2024/04/02 03:47:55;;;;;;;;;;;;;;;6.14;100.00;100187.13;5069301;28;19954;-68
2024/04/02 03:50:21;;;;;;;;;;;;;;;6.10;100.00;100175.19;5061609;28;19921;-69
2024/04/02 03:52:46;;;;;;;;;;;;;;;5.99;100.00;100172.75;5063771;28;19978;-72
2024/04/02 03:55:12;;;;;;;;;;;;;;;6.01;100.00;100176.91;5046686;28;19985;-74
2024/04/02 03:57:37;;;;;;;;;;;;;;;6.03;100.00;100171.47;5063793;28;19975;-70
2024/04/02 04:00:03;;;;;;;;;;;;;;;6.12;100.00;100173.25;5066305;28;19931;-69
2024/04/02 04:02:29;;;;;;;;;;;;;;;6.13;100.00;100172.25;5061006;28;19927;-68
2024/04/02 04:04:54;;;;;;;;;;;;;;;6.17;100.00;100181.56;5058628;28;19924;-68
2024/04/02 04:07:19;;;;;;;;;;;;;;;6.27;100.00;100184.97;5064414;28;20031;-68
2024/04/02 04:09:48;;;;;;;;;;;;;;;6.22;100.00;100201.28;5061920;28;19925;-68
2024/04/02 04:12:13;;;;;;;;;;;;;;;6.16;100.00;100201.03;5066231;28;19928;-68
2024/04/02 04:14:39;;;;;;;;;;;;;;;6.22;100.00;100211.03;5060675;28;19928;-70
2024/04/02 04:17:04;;;;;;;;;;;;;;;6.24;100.00;100214.34;5061179;28;20380;-69
2024/04/02 04:19:29;;;;;;;;;;;;;;;6.25;100.00;100205.44;5059884;28;20304;-67
2024/04/02 04:21:55;;;;;;;;;;;;;;;6.20;100.00;100221.75;5066082;28;20391;-67
2024/04/02 04:24:22;;;;;;;;;;;;;;;6.17;100.00;100223.84;5060573;28;19921;-68
2024/04/02 04:26:47;;;;;;;;;;;;;;;6.19;100.00;100219.25;5060297;28;19925;-68
2024/04/02 04:29:15;;;;;;;;;;;;;;;6.15;100.00;100209.94;5062717;28;20500;-68
2024/04/02 04:31:47;;;;;;;;;;;;;;;6.01;100.00;100207.78;5063343;28;19967;-68
2024/04/02 04:34:13;;;;;;;;;;;;;;;5.96;100.00;100210.03;5059863;28;19931;-69
2024/04/02 04:36:39;;;;;;;;;;;;;;;5.97;100.00;100203.78;5060949;28;19921;-68
2024/04/02 04:39:05;;;;;;;;;;;;;;;6.04;100.00;100202.19;5062026;28;19921;-70
2024/04/02 04:41:31;;;;;;;;;;;;;;;6.10;100.00;100204.28;5057648;28;19925;-70
2024/04/02 04:43:56;;;;;;;;;;;;;;;6.07;100.00;100192.19;5058313;28;20292;-70
2024/04/02 04:46:21;;;;;;;;;;;;;;;5.94;100.00;100196.97;5056493;28;19929;-70
2024/04/02 04:48:49;;;;;;;;;;;;;;;5.89;100.00;100194.78;5065299;28;20379;-66
2024/04/02 04:51:14;;;;;;;;;;;;;;;5.83;100.00;100195.34;5066588;28;20017;-70
2024/04/02 04:53:40;;;;;;;;;;;;;;;5.77;100.00;100214.38;5075092;28;19968;-68
2024/04/02 04:56:05;;;;;;;;;;;;;;;5.66;100.00;100222.50;5063012;28;19956;-69
2024/04/02 04:58:31;;;;;;;;;;;;;;;5.67;100.00;100226.81;5053842;28;20384;-69
2024/04/02 05:00:57;;;;;;;;;;;;;;;5.71;100.00;100214.13;5061868;28;19966;-69
2024/04/02 05:03:22;;;;;;;;;;;;;;;5.76;100.00;100220.66;5060445;28;19924;-69
2024/04/02 05:05:48;;;;;;;;;;;;;;;5.79;100.00;100240.69;5067895;28;19978;-69
2024/04/02 05:08:28;;;;;;;;;;;;;;;5.81;100.00;100234.28;5063086;28;20022;-69
2024/04/02 05:10:53;;;;;;;;;;;;;;;5.92;100.00;100232.47;5063252;28;19924;-70
2024/04/02 05:13:19;;;;;;;;;;;;;;;5.94;100.00;100241.06;5065458;28;19934;-70
2024/04/02 05:15:45;;;;;;;;;;;;;;;6.05;100.00;100235.59;5060220;28;20070;-69
2024/04/02 05:18:12;;;;;;;;;;;;;;;6.13;100.00;100227.78;5060024;28;19935;-70
2024/04/02 05:20:37;;;;;;;;;;;;;;;6.22;100.00;100232.16;5068796;28;19976;-69
2024/04/02 05:23:04;;;;;;;;;;;;;;;6.28;100.00;100233.38;5068653;28;20364;-70
2024/04/02 05:25:29;;;;;;;;;;;;;;;6.27;100.00;100227.25;5081406;28;20265;-68
2024/04/02 05:27:55;;;;;;;;;;;;;;;6.18;100.00;100226.34;5066835;28;19940;-71
2024/04/02 05:30:20;;;;;;;;;;;;;;;6.15;100.00;100213.44;5068010;28;19946;-67
2024/04/02 05:32:45;;;;;;;;;;;;;;;6.14;100.00;100224.16;5042245;28;19932;-70
2024/04/02 05:35:11;;;;;;;;;;;;;;;6.20;100.00;100228.84;5065407;28;19968;-69
2024/04/02 05:37:36;;;;;;;;;;;;;;;6.17;100.00;100231.78;5065700;28;19932;-70
2024/04/02 05:40:04;;;;;;;;;;;;;;;6.18;100.00;100220.22;5064433;28;19971;-71
2024/04/02 05:42:29;;;;;;;;;;;;;;;6.20;100.00;100216.47;5074224;28;19924;-67
2024/04/02 05:44:55;;;;;;;;;;;;;;;6.19;100.00;100211.31;5067603;28;19931;-69
2024/04/02 05:47:22;;;;;;;;;;;;;;;6.13;100.00;100222.50;5057548;28;19925;-68
2024/04/02 05:49:48;;;;;;;;;;;;;;;6.05;100.00;100225.00;5063087;28;19927;-68
2024/04/02 05:52:13;;;;;;;;;;;;;;;5.99;100.00;100225.59;5069028;28;19975;-73
2024/04/02 05:54:39;;;;;;;;;;;;;;;5.95;100.00;100221.59;5065456;28;20053;-68
2024/04/02 05:57:04;;;;;;;;;;;;;;;6.00;100.00;100219.34;5063138;28;19931;-70
2024/04/02 05:59:29;;;;;;;;;;;;;;;6.15;100.00;100221.34;5071788;28;19973;-69
2024/04/02 06:01:55;;;;;;;;;;;;;;;6.20;100.00;100223.56;5066265;28;19931;-71
2024/04/02 06:04:20;;;;;;;;;;;;;;;6.21;100.00;100238.44;5067306;28;20406;-68
2024/04/02 06:06:48;;;;;;;;;;;;;;;6.12;100.00;100223.47;5064712;28;20284;-70
2024/04/02 06:09:14;;;;;;;;;;;;;;;6.11;100.00;100221.81;5045378;28;19920;-69
2024/04/02 06:11:39;;;;;;;;;;;;;;;6.09;100.00;100216.66;5067129;28;19928;-71
2024/04/02 06:14:04;;;;;;;;;;;;;;;6.08;100.00;100215.00;5057426;28;19931;-71
2024/04/02 06:16:29;;;;;;;;;;;;;;;6.25;100.00;100205.44;5063577;28;19925;-69
2024/04/02 06:18:55;;;;;;;;;;;;;;;6.37;100.00;100206.06;5070401;28;19920;-68
2024/04/02 06:21:20;;;;;;;;;;;;;;;6.51;100.00;100216.97;5070772;28;20052;-70
2024/04/02 06:23:46;;;;;;;;;;;;;;;6.67;100.00;100215.47;5066431;28;19994;-68
2024/04/02 06:26:14;;;;;;;;;;;;;;;6.74;100.00;100211.22;5064404;28;19977;-69
2024/04/02 06:28:39;;;;;;;;;;;;;;;6.79;100.00;100198.38;5070043;28;19980;-66
2024/04/02 06:31:05;;;;;;;;;;;;;;;6.69;100.00;100203.75;5042302;28;19921;-66
2024/04/02 06:33:30;;;;;;;;;;;;;;;6.60;100.00;100203.81;5065053;28;20046;-68
2024/04/02 06:35:56;;;;;;;;;;;;;;;6.44;100.00;100202.66;5065270;28;19924;-69
2024/04/02 06:38:21;;;;;;;;;;;;;;;6.40;100.00;100214.53;5061248;28;19970;-67
2024/04/02 06:40:46;;;;;;;;;;;;;;;6.50;100.00;100209.19;5070056;28;19924;-65
2024/04/02 06:43:12;;;;;;;;;;;;;;;6.61;100.00;100202.81;5054415;28;19935;-66
2024/04/02 06:45:37;;;;;;;;;;;;;;;6.67;100.00;100205.72;5063826;28;19931;-70
2024/04/02 06:48:02;;;;;;;;;;;;;;;6.84;100.00;100222.56;5064119;28;19924;-68
2024/04/02 06:50:28;;;;;;;;;;;;;;;7.05;100.00;100230.19;5063028;28;19967;-69
2024/04/02 06:52:54;;;;;;;;;;;;;;;7.20;100.00;100235.78;5069599;28;20359;-69
2024/04/02 06:55:19;;;;;;;;;;;;;;;7.22;100.00;100242.56;5059925;28;19994;-70
2024/04/02 06:57:45;;;;;;;;;;;;;;;7.08;100.00;100238.66;5064378;28;20392;-70
2024/04/02 07:00:11;;;;;;;;;;;;;;;7.06;100.00;100237.16;5064494;28;19924;-72
2024/04/02 07:02:36;;;;;;;;;;;;;;;7.02;100.00;100231.34;5068662;28;19951;-71
2024/04/02 07:05:01;;;;;;;;;;;;;;;7.14;100.00;100230.09;5062475;28;20031;-69
2024/04/02 07:07:28;;;;;;;;;;;;;;;7.21;100.00;100234.78;5068475;28;19924;-68
2024/04/02 07:09:53;;;;;;;;;;;;;;;7.27;100.00;100235.03;5070982;28;20074;-70
2024/04/02 07:12:18;;;;;;;;;;;;;;;7.26;100.00;100240.47;5067518;28;20043;-70
2024/04/02 07:14:44;;;;;;;;;;;;;;;7.19;100.00;100250.00;5070833;28;20307;-70
2024/04/02 07:17:09;;;;;;;;;;;;;;;7.10;100.00;100238.50;5074142;28;20406;-70
2024/04/02 07:19:34;;;;;;;;;;;;;;;7.18;100.00;100235.09;5041240;28;20133;-68
2024/04/02 07:21:59;;;;;;;;;;;;;;;7.15;100.00;100237.06;5065853;28;19928;-69
2024/04/02 07:24:25;;;;;;;;;;;;;;;7.15;100.00;100237.06;5061954;28;19925;-70
2024/04/02 07:26:51;;;;;;;;;;;;;;;7.07;100.00;100237.00;5066632;28;19925;-71
2024/04/02 07:29:17;;;;;;;;;;;;;;;7.10;100.00;100233.22;5059597;28;19925;-69
2024/04/02 07:31:42;;;;;;;;;;;;;;;7.20;100.00;100238.41;5056801;28;19959;-69
2024/04/02 07:34:07;;;;;;;;;;;;;;;7.27;100.00;100244.78;5065184;28;19929;-65
2024/04/02 07:36:33;;;;;;;;;;;;;;;7.27;100.00;100229.72;5060541;28;19973;-69
2024/04/02 07:38:59;;;;;;;;;;;;;;;7.40;100.00;100243.38;5057327;28;20289;-68
2024/04/02 07:41:24;;;;;;;;;;;;;;;7.62;100.00;100238.56;5062365;28;19925;-64
2024/04/02 07:43:50;;;;;;;;;;;;;;;7.83;100.00;100243.50;5057852;28;19924;-68
2024/04/02 07:46:15;;;;;;;;;;;;;;;7.85;98.00;100238.88;5060501;28;19931;-69
2024/04/02 07:48:40;;;;;;;;;;;;;;;7.76;97.81;100249.41;5060750;28;19925;-68
2024/04/02 07:51:09;;;;;;;;;;;;;;;7.65;97.83;100249.69;5062053;28;19928;-66
2024/04/02 07:53:35;;;;;;;;;;;;;;;7.45;97.80;100246.41;5062986;28;19993;-67
2024/04/02 07:56:00;;;;;;;;;;;;;;;7.38;98.94;100247.19;5069587;28;20387;-64
2024/04/02 07:58:25;;;;;;;;;;;;;;;7.31;98.03;100246.13;5071563;28;19976;-70
2024/04/02 08:00:50;;;;;;;;;;;;;;;7.12;99.09;100250.63;5069507;28;19920;-69
2024/04/02 08:03:16;;;;;;;;;;;;;;;7.09;98.43;100248.28;5068919;28;19977;-72
2024/04/02 08:05:42;;;;;;;;;;;;;;;7.12;98.59;100247.13;5062008;28;20370;-65
2024/04/02 08:08:07;;;;;;;;;;;;;;;7.22;98.90;100239.91;5065757;28;19925;-67
2024/04/02 08:10:33;;;;;;;;;;;;;;;7.28;97.36;100243.81;5065770;28;19924;-68
2024/04/02 08:12:58;;;;;;;;;;;;;;;7.35;97.25;100245.66;5059742;28;19936;-68
2024/04/02 08:15:24;;;;;;;;;;;;;;;7.38;96.69;100237.41;5061870;28;20292;-65
2024/04/02 08:17:49;;;;;;;;;;;;;;;7.60;96.59;100233.44;5061540;28;19924;-66
2024/04/02 08:20:14;;;;;;;;;;;;;;;7.72;94.02;100239.28;5060825;28;20212;-69
2024/04/02 08:22:40;;;;;;;;;;;;;;;7.83;94.27;100232.91;5068668;28;20348;-67
2024/04/02 08:25:07;;;;;;;;;;;;;;;7.93;93.48;100238.91;5064489;28;19947;-69
2024/04/02 08:27:33;;;;;;;;;;;;;;;7.94;93.89;100244.06;5061630;28;20031;-67
2024/04/02 08:29:59;;;;;;;;;;;;;;;8.10;91.76;100238.00;5061280;28;20033;-68
2024/04/02 08:32:24;;;;;;;;;;;;;;;8.18;90.43;100248.63;5062222;28;20403;-67
2024/04/02 08:34:49;;;;;;;;;;;;;;;8.19;91.26;100245.00;5068300;28;20030;-67
2024/04/02 08:37:15;;;;;;;;;;;;;;;8.34;89.98;100232.78;5062231;28;19928;-66
2024/04/02 08:39:40;;;;;;;;;;;;;;;8.69;89.84;100244.19;5059672;28;19920;-68
2024/04/02 08:42:06;;;;;;;;;;;;;;;8.93;87.74;100240.72;5062007;28;20396;-65
2024/04/02 08:44:32;;;;;;;;;;;;;;;8.92;87.27;100239.06;5061831;28;19927;-65
2024/04/02 08:46:58;;;;;;;;;;;;;;;8.88;88.06;100227.09;5062470;28;19932;-66
2024/04/02 08:49:24;;;;;;;;;;;;;;;8.69;87.68;100228.25;5067727;28;19924;-65
2024/04/02 08:51:50;;;;;;;;;;;;;;;8.63;88.68;100242.16;5056561;28;20371;-68
2024/04/02 08:54:15;;;;;;;;;;;;;;;8.61;88.23;100246.81;5059250;28;19931;-65
2024/04/02 08:56:41;;;;;;;;;;;;;;;8.63;88.67;100234.19;5061043;28;20251;-67
2024/04/02 08:59:07;;;;;;;;;;;;;;;8.37;89.60;100232.47;5070053;28;20368;-66
2024/04/02 09:01:32;;;;;;;;;;;;;;;8.05;90.42;100240.28;5066185;28;19955;-65
2024/04/02 09:04:01;;;;;;;;;;;;;;;8.07;91.58;100233.00;5064368;28;19929;-66
2024/04/02 09:06:27;;;;;;;;;;;;;;;8.01;92.29;100245.06;5063658;28;19966;-65
2024/04/02 09:08:52;;;;;;;;;;;;;;;8.05;92.13;100245.59;5061346;28;20439;-65
2024/04/02 09:11:18;;;;;;;;;;;;;;;8.02;91.32;100240.59;5060205;28;19932;-67
2024/04/02 09:13:43;;;;;;;;;;;;;;;7.89;92.49;100245.50;5058391;28;19928;-67
2024/04/02 09:16:10;;;;;;;;;;;;;;;7.72;93.37;100245.41;5057768;28;19928;-64
2024/04/02 09:18:37;;;;;;;;;;;;;;;7.66;94.77;100230.13;5057066;28;19928;-67
2024/04/02 09:21:03;;;;;;;;;;;;;;;7.61;94.83;100227.13;5068550;28;19928;-67
2024/04/02 09:23:29;;;;;;;;;;;;;;;7.44;94.90;100243.91;5058249;28;20003;-67
2024/04/02 09:25:55;;;;;;;;;;;;;;;7.33;95.69;100249.47;5061779;28;19924;-66
2024/04/02 09:28:22;;;;;;;;;;;;;;;7.31;96.34;100252.25;5065349;28;19935;-66
2024/04/02 09:30:47;;;;;;;;;;;;;;;7.20;97.07;100252.50;5075832;28;19928;-67
2024/04/02 09:33:15;;;;;;;;;;;;;;;7.23;96.50;100252.22;5061054;28;19970;-70
2024/04/02 09:35:54;;;;;;;;;;;;;;;7.27;95.94;100247.44;5058467;28;19920;-67
2024/04/02 09:38:20;;;;;;;;;;;;;;;7.24;95.39;100243.28;5064152;28;19924;-69
2024/04/02 09:40:46;;;;;;;;;;;;;;;7.17;96.26;100244.84;5078289;28;19924;-70
2024/04/02 09:43:13;;;;;;;;;;;;;;;7.30;96.25;100249.78;5061108;28;19947;-69
2024/04/02 09:45:38;;;;;;;;;;;;;;;7.27;95.87;100234.19;5069451;28;19925;-69
2024/04/02 09:48:04;;;;;;;;;;;;;;;7.19;95.63;100237.59;5065120;28;19978;-69
2024/04/02 09:50:30;;;;;;;;;;;;;;;7.06;95.93;100235.34;5063489;28;19924;-68
2024/04/02 09:52:58;;;;;;;;;;;;;;;6.96;96.93;100237.25;5059754;28;19927;-67
2024/04/02 09:55:24;;;;;;;;;;;;;;;7.01;96.90;100240.28;5059656;28;19920;-68
2024/04/02 09:57:50;;;;;;;;;;;;;;;7.00;97.14;100251.84;5060882;28;19920;-70
2024/04/02 10:00:15;;;;;;;;;;;;;;;6.98;97.66;100219.41;5060671;28;20288;-74
2024/04/02 10:02:41;;;;;;;;;;;;;;;7.14;96.89;100224.81;5076583;28;19924;-70
2024/04/02 10:05:10;;;;;;;;;;;;;;;7.20;96.15;100230.47;5037964;28;19948;-73
2024/04/02 10:07:39;;;;;;;;;;;;;;;7.13;95.75;100227.63;5067061;28;19939;-68
2024/04/02 10:10:06;;;;;;;;;;;;;;;7.22;95.78;100231.16;5062270;28;19925;-67
2024/04/02 10:12:32;;;;;;;;;;;;;;;7.24;96.55;100218.59;5071347;28;19931;-65
2024/04/02 10:15:02;;;;;;;;;;;;;;;7.44;95.74;100204.16;5084904;28;20018;-66
2024/04/02 10:17:28;;;;;;;;;;;;;;;7.55;94.27;100205.75;5067615;28;19920;-69
2024/04/02 10:19:54;;;;;;;;;;;;;;;7.59;94.03;100204.44;5059613;28;19983;-68
2024/04/02 10:22:36;;;;;;;;;;;;;;;7.51;94.69;100205.19;5072681;28;20102;-67
2024/04/02 10:25:11;;;;;;;;;;;;;;;7.42;94.39;100201.66;5062546;28;19925;-70
2024/04/02 10:27:41;;;;;;;;;;;;;;;7.31;94.77;100204.59;5055583;28;19928;-68
2024/04/02 10:30:26;;;;;;;;;;;;;;;7.23;96.09;100214.28;5069202;28;19925;-65
2024/04/02 10:32:53;;;;;;;;;;;;;;;7.07;97.13;100194.63;5065695;28;19931;-66
2024/04/02 10:35:19;;;;;;;;;;;;;;;6.99;97.42;100170.75;5061118;28;19924;-70
2024/04/02 10:37:44;;;;;;;;;;;;;;;6.78;98.06;100180.84;5065893;28;20350;-66
2024/04/02 10:40:10;;;;;;;;;;;;;;;6.53;100.00;100183.25;5063394;28;19925;-69
2024/04/02 10:42:35;;;;;;;;;;;;;;;6.52;100.00;100175.47;5064831;28;20018;-68
2024/04/02 10:45:01;;;;;;;;;;;;;;;6.42;100.00;100180.84;5063618;28;19955;-67
2024/04/02 10:47:28;;;;;;;;;;;;;;;6.39;100.00;100170.56;5062255;28;19943;-68
2024/04/02 10:49:53;;;;;;;;;;;;;;;6.42;100.00;100175.53;5064288;28;19921;-69
2024/04/02 10:52:19;;;;;;;;;;;;;;;6.45;100.00;100167.31;5066364;28;20061;-69
2024/04/02 10:54:44;;;;;;;;;;;;;;;6.56;100.00;100160.94;5065136;28;19959;-69
2024/04/02 10:57:10;;;;;;;;;;;;;;;6.50;100.00;100165.03;5057241;28;20391;-68
2024/04/02 10:59:36;;;;;;;;;;;;;;;6.48;100.00;100168.81;5065367;28;20039;-70
2024/04/02 11:02:15;;;;;;;;;;;;;;;6.42;100.00;100170.25;5064548;28;19921;-71
2024/04/02 11:04:41;;;;;;;;;;;;;;;6.34;100.00;100172.78;5062293;28;20292;-72
2024/04/02 11:07:10;;;;;;;;;;;;;;;6.20;100.00;100178.59;5064482;28;19931;-66
2024/04/02 11:09:36;;;;;;;;;;;;;;;6.02;100.00;100173.28;5064352;28;19968;-71
2024/04/02 11:12:02;;;;;;;;;;;;;;;5.94;100.00;100170.53;5065542;28;19928;-65
2024/04/02 11:14:27;;;;;;;;;;;;;;;5.81;100.00;100170.88;5065034;28;19921;-67
2024/04/02 11:16:52;;;;;;;;;;;;;;;5.71;100.00;100148.91;5064901;28;20396;-66
2024/04/02 11:19:18;;;;;;;;;;;;;;;5.68;100.00;100129.88;5063082;28;19995;-65
2024/04/02 11:21:43;;;;;;;;;;;;;;;5.87;100.00;100133.28;5075899;28;19986;-67
2024/04/02 11:27:05;;;;;;;;;;;;;;;5.91;100.00;100139.13;4962124;28;2792314;-66
2024/04/02 11:29:31;;;;;;;;;;;;;;;5.84;100.00;100123.00;5056809;28;19925;-66
2024/04/02 11:31:56;;;;;;;;;;;;;;;5.88;100.00;100127.00;5064018;28;19947;-66
2024/04/02 11:34:21;;;;;;;;;;;;;;;5.81;100.00;100133.88;5063892;28;20396;-68
2024/04/02 11:36:47;;;;;;;;;;;;;;;5.80;100.00;100147.22;5072074;28;19943;-69
2024/04/02 11:39:12;;;;;;;;;;;;;;;5.67;100.00;100157.28;5061432;28;20292;-68
2024/04/02 11:41:41;;;;;;;;;;;;;;;5.45;100.00;100153.19;5065960;28;20429;-70
2024/04/02 11:44:06;;;;;;;;;;;;;;;5.49;100.00;100157.22;5062593;28;19927;-69
2024/04/02 11:46:32;;;;;;;;;;;;;;;5.58;100.00;100162.47;5062164;28;20302;-67
2024/04/02 11:48:57;;;;;;;;;;;;;;;5.58;100.00;100153.72;5067161;28;19956;-64
2024/04/02 11:51:22;;;;;;;;;;;;;;;5.53;100.00;100150.69;5074729;28;19924;-64
2024/04/02 11:53:48;;;;;;;;;;;;;;;5.42;100.00;100145.56;5065712;28;19925;-67
2024/04/02 11:56:13;;;;;;;;;;;;;;;5.28;100.00;100134.50;5071392;28;20020;-69
2024/04/02 12:01:22;;;;;;;;;;;;;;;5.35;100.00;100120.72;5064967;28;20031;-66
2024/04/02 12:03:48;;;;;;;;;;;;;;;5.27;100.00;100124.91;5067257;28;19960;-68
2024/04/02 12:06:13;;;;;;;;;;;;;;;5.26;100.00;100115.34;5065210;28;19924;-69
2024/04/02 12:08:38;;;;;;;;;;;;;;;5.37;100.00;100102.91;5056607;28;19925;-68
2024/04/02 12:11:03;;;;;;;;;;;;;;;5.28;100.00;100123.94;5069119;28;19924;-70
2024/04/02 12:13:29;;;;;;;;;;;;;;;5.31;100.00;100114.06;5037429;28;19932;-69
2024/04/02 12:15:55;;;;;;;;;;;;;;;5.45;100.00;100118.88;5063078;28;19925;-65
2024/04/02 12:18:21;;;;;;;;;;;;;;;5.37;100.00;100097.63;5063264;28;20035;-66
2024/04/02 12:20:46;;;;;;;;;;;;;;;5.31;100.00;100100.88;5071545;28;19931;-65
2024/04/02 12:23:12;;;;;;;;;;;;;;;5.32;100.00;100089.34;5062422;28;19965;-68
2024/04/02 12:25:37;;;;;;;;;;;;;;;5.28;100.00;100084.34;5064488;28;19931;-67
2024/04/02 12:28:03;;;;;;;;;;;;;;;5.22;100.00;100062.97;5068205;28;19964;-64
2024/04/02 12:30:28;;;;;;;;;;;;;;;5.21;100.00;100058.69;5063414;28;19921;-69
2024/04/02 12:32:53;;;;;;;;;;;;;;;5.17;100.00;100065.19;5071170;28;19946;-68
2024/04/02 12:35:19;;;;;;;;;;;;;;;4.98;100.00;100055.56;5062580;28;19927;-67
2024/04/02 12:37:44;;;;;;;;;;;;;;;4.99;100.00;100067.78;5064488;28;19928;-69
2024/04/02 12:40:10;;;;;;;;;;;;;;;5.03;100.00;100058.59;5058825;28;20434;-71